Time;durP1;ratioP1;P1;durP2;ratioP2;P2;SDS_P1;SDS_P2;PMS_P1;PMS_P2;Temp;Humidity;BMP_temperature;BMP_pressure;BME280_temperature;BME280_humidity;BME280_pressure;Samples;Min_cycle;Max_cycle;Signal;HPM_P1;HPM_P2
2022/09/18 00:01:46;;;;;;;0.95;0.70;;;;;;;26.59;33.46;98215.38;4717019;30;20472;-88
2022/09/18 00:04:15;;;;;;;0.80;0.80;;;;;;;26.70;33.21;98232.97;4730730;30;20152;-88
2022/09/18 00:06:41;;;;;;;0.50;0.50;;;;;;;26.49;33.39;98210.38;4717852;30;20085;-88
2022/09/18 00:09:09;;;;;;;0.50;0.50;;;;;;;26.37;33.50;98197.50;4716273;30;20036;-88
2022/09/18 00:11:41;;;;;;;0.50;0.50;;;;;;;26.45;33.39;98201.28;4718234;30;20029;-88
2022/09/18 00:14:08;;;;;;;0.60;0.60;;;;;;;26.48;33.14;98217.03;4716768;30;20036;-88
2022/09/18 00:16:33;;;;;;;0.50;0.50;;;;;;;26.42;33.61;98211.78;4716741;30;20036;-88
2022/09/18 00:18:59;;;;;;;0.77;0.70;;;;;;;26.43;33.31;98218.03;4731215;30;20044;-88
2022/09/18 00:21:25;;;;;;;1.25;0.60;;;;;;;26.56;33.31;98243.44;4716338;30;20032;-88
2022/09/18 00:23:54;;;;;;;0.98;0.68;;;;;;;26.36;33.12;98229.59;4731199;30;20035;-88
2022/09/18 00:26:19;;;;;;;1.17;0.60;;;;;;;26.12;33.48;98191.31;4716445;30;20051;-88
2022/09/18 00:28:45;;;;;;;1.05;0.80;;;;;;;26.50;33.31;98245.63;4716138;30;20066;-88
2022/09/18 00:31:19;;;;;;;0.80;0.60;;;;;;;26.37;33.42;98235.84;4716507;30;20127;-88
2022/09/18 00:33:44;;;;;;;0.35;0.35;;;;;;;26.21;33.38;98208.38;4716577;30;20047;-88
2022/09/18 00:36:12;;;;;;;1.52;0.75;;;;;;;26.20;33.31;98215.03;4717719;30;20044;-88
2022/09/18 00:38:38;;;;;;;1.50;0.60;;;;;;;26.23;33.42;98215.13;4734169;30;20162;-88
2022/09/18 00:41:07;;;;;;;0.60;0.60;;;;;;;26.19;33.34;98219.69;4720109;30;20436;-88
2022/09/18 00:43:34;;;;;;;0.50;0.50;;;;;;;26.27;33.09;98237.13;4720429;30;20486;-89
2022/09/18 00:46:22;;;;;;;0.60;0.60;;;;;;;26.17;33.15;98211.03;4719231;30;20038;-88
2022/09/18 00:48:53;;;;;;;0.95;0.63;;;;;;;26.23;33.29;98242.50;4743600;30;20040;-88
2022/09/18 00:51:18;;;;;;;0.57;0.50;;;;;;;26.14;33.19;98222.66;4734291;30;20028;-88
2022/09/18 00:53:49;;;;;;;0.52;0.50;;;;;;;26.10;33.41;98229.19;4719871;30;20394;-88
2022/09/18 00:56:14;;;;;;;2.03;0.50;;;;;;;26.14;33.38;98230.88;4734260;30;20079;-88
2022/09/18 00:58:40;;;;;;;0.60;0.60;;;;;;;26.18;33.25;98247.41;4719536;30;20028;-88
2022/09/18 01:01:07;;;;;;;0.65;0.50;;;;;;;26.02;33.50;98220.72;4719766;30;20098;-88
2022/09/18 01:03:34;;;;;;;1.67;0.77;;;;;;;26.05;33.58;98236.47;4733898;30;20039;-88
2022/09/18 01:06:38;;;;;;;0.82;0.63;;;;;;;26.26;33.25;98270.34;4719755;30;20222;-88
2022/09/18 01:09:12;;;;;;;1.17;0.60;;;;;;;25.96;33.47;98224.06;4748878;30;20071;-88
2022/09/18 01:11:43;;;;;;;0.93;0.70;;;;;;;26.21;33.45;98265.88;4720053;30;20044;-91
2022/09/18 01:14:24;;;;;;;1.58;0.60;;;;;;;26.11;33.23;98249.91;4734158;30;20043;-90
2022/09/18 01:17:08;;;;;;;0.57;0.47;;;;;;;26.20;33.56;98269.78;4735303;30;20406;-90
2022/09/18 01:20:16;;;;;;;0.77;0.60;;;;;;;26.18;33.32;98261.09;4749117;30;20036;-90
2022/09/18 01:22:48;;;;;;;0.57;0.50;;;;;;;26.16;33.33;98268.84;4686439;30;20185;-90
2022/09/18 01:25:23;;;;;;;1.23;0.60;;;;;;;26.05;33.49;98254.81;4748627;30;20040;-90
2022/09/18 01:28:01;;;;;;;0.60;0.60;;;;;;;25.85;33.48;98235.44;4710437;30;20040;-90
2022/09/18 01:30:27;;;;;;;0.50;0.50;;;;;;;25.92;33.45;98255.94;4718283;30;20028;-89
2022/09/18 01:33:03;;;;;;;0.70;0.70;;;;;;;25.88;33.49;98250.34;4727330;30;20606;-90
2022/09/18 01:35:35;;;;;;;0.77;0.60;;;;;;;25.89;33.37;98260.16;4717796;30;20044;-89
2022/09/18 01:38:13;;;;;;;1.17;0.80;;;;;;;25.88;33.44;98257.75;4717735;30;20451;-90
2022/09/18 01:40:45;;;;;;;1.27;0.55;;;;;;;25.88;33.45;98264.03;4713804;30;20458;-90
2022/09/18 01:43:11;;;;;;;0.60;0.60;;;;;;;25.75;33.30;98240.53;4718754;30;20043;-89
2022/09/18 01:45:48;;;;;;;0.52;0.50;;;;;;;25.82;33.63;98259.94;4732373;30;20024;-89
2022/09/18 01:48:22;;;;;;;0.40;0.40;;;;;;;25.79;33.46;98252.41;4716196;30;20039;-89
2022/09/18 01:50:54;;;;;;;0.50;0.50;;;;;;;25.73;33.25;98249.06;4734527;30;20063;-89
2022/09/18 01:53:32;;;;;;;0.80;0.80;;;;;;;25.84;33.53;98274.06;4735972;30;20032;-89
2022/09/18 01:56:01;;;;;;;1.63;0.50;;;;;;;25.80;33.50;98271.22;4719210;30;20070;-89
2022/09/18 01:58:26;;;;;;;0.70;0.60;;;;;;;25.66;33.52;98252.41;4747218;30;20035;-90
2022/09/18 02:00:53;;;;;;;0.40;0.40;;;;;;;25.77;33.24;98273.84;4718755;30;20413;-90
2022/09/18 02:03:56;;;;;;;1.17;0.70;;;;;;;25.80;33.44;98270.41;4732985;30;20036;-89
2022/09/18 02:06:25;;;;;;;0.82;0.60;;;;;;;25.77;33.45;98279.31;4688904;30;20299;-90
2022/09/18 02:08:53;;;;;;;0.65;0.55;;;;;;;25.74;33.49;98274.50;4724348;30;20098;-89
2022/09/18 02:11:19;;;;;;;1.02;0.50;;;;;;;25.76;33.31;98277.69;4733369;30;21899;-89
2022/09/18 02:13:52;;;;;;;0.63;0.63;;;;;;;25.72;33.45;98271.31;4733361;30;20040;-89
2022/09/18 02:16:29;;;;;;;0.50;0.50;;;;;;;25.80;33.34;98300.50;4732482;30;20036;-89
2022/09/18 02:18:56;;;;;;;1.27;0.60;;;;;;;25.77;33.32;98301.97;4718551;30;20067;-90
2022/09/18 02:21:26;;;;;;;0.88;0.60;;;;;;;25.75;33.45;98300.72;4747128;30;20032;-89
2022/09/18 02:24:03;;;;;;;0.52;0.50;;;;;;;25.70;33.31;98296.28;4717227;30;20483;-89
2022/09/18 02:26:29;;;;;;;1.58;0.50;;;;;;;25.59;33.60;98295.88;4718176;30;20424;-89
2022/09/18 02:28:55;;;;;;;0.40;0.40;;;;;;;25.62;33.40;98295.22;4718775;30;20046;-89
2022/09/18 02:31:21;;;;;;;0.75;0.57;;;;;;;25.58;33.36;98285.31;4718409;30;20028;-89
2022/09/18 02:33:46;;;;;;;0.60;0.50;;;;;;;25.61;33.37;98290.91;4717198;30;20101;-88
2022/09/18 02:36:50;;;;;;;0.50;0.50;;;;;;;25.77;33.28;98317.59;4716967;30;20093;-89
2022/09/18 02:39:41;;;;;;;0.50;0.50;;;;;;;25.76;33.50;98316.00;4746536;30;20044;-89
2022/09/18 02:42:32;;;;;;;1.35;0.43;;;;;;;25.54;33.39;98293.38;4748776;30;20097;-89
2022/09/18 02:45:22;;;;;;;1.05;0.60;;;;;;;25.54;33.53;98290.63;4734362;30;20387;-89
2022/09/18 02:48:02;;;;;;;0.50;0.47;;;;;;;25.72;33.41;98323.28;4746766;30;20064;-89
2022/09/18 02:51:12;;;;;;;0.50;0.50;;;;;;;25.70;33.67;98322.81;4746677;30;20067;-89
2022/09/18 02:53:48;;;;;;;0.50;0.50;;;;;;;25.56;33.33;98307.53;4745781;30;20035;-89
2022/09/18 02:56:22;;;;;;;0.68;0.60;;;;;;;25.52;33.49;98314.78;4718830;30;20565;-89
2022/09/18 02:58:53;;;;;;;0.40;0.40;;;;;;;25.36;33.26;98294.72;4731447;30;20020;-89
2022/09/18 03:01:19;;;;;;;0.77;0.50;;;;;;;25.51;33.36;98315.94;4718306;30;20141;-89
2022/09/18 03:03:45;;;;;;;0.60;0.40;;;;;;;25.55;33.41;98322.34;4727366;30;20050;-89
2022/09/18 03:06:11;;;;;;;0.75;0.50;;;;;;;25.51;33.36;98315.94;4728463;30;20075;-89
2022/09/18 03:08:36;;;;;;;0.50;0.50;;;;;;;25.45;33.46;98320.03;4763096;30;20070;-88
2022/09/18 03:11:02;;;;;;;2.60;0.60;;;;;;;25.46;33.57;98318.91;4718736;30;20060;-89
2022/09/18 03:13:29;;;;;;;0.50;0.50;;;;;;;25.46;33.65;98329.84;4740286;30;20027;-89
2022/09/18 03:15:55;;;;;;;0.50;0.50;;;;;;;25.32;33.25;98310.16;4722943;30;20044;-89
2022/09/18 03:18:20;;;;;;;0.50;0.50;;;;;;;25.33;33.55;98303.56;4719514;30;20572;-89
2022/09/18 03:20:46;;;;;;;0.45;0.45;;;;;;;25.47;33.54;98328.69;4719581;30;20040;-88
2022/09/18 03:23:12;;;;;;;0.85;0.40;;;;;;;25.40;33.43;98326.50;4725446;30;20032;-88
2022/09/18 03:25:37;;;;;;;0.43;0.43;;;;;;;25.38;33.66;98317.03;4756311;30;20058;-89
2022/09/18 03:28:03;;;;;;;0.40;0.40;;;;;;;25.27;33.41;98301.06;4749400;30;20525;-89
2022/09/18 03:30:29;;;;;;;0.80;0.70;;;;;;;25.35;33.25;98331.38;4755147;30;20058;-88
2022/09/18 03:32:55;;;;;;;1.38;0.60;;;;;;;25.33;33.34;98331.72;4726908;30;20032;-89
2022/09/18 03:35:20;;;;;;;0.50;0.50;;;;;;;25.24;33.56;98309.88;4746411;30;20036;-88
2022/09/18 03:37:46;;;;;;;0.40;0.40;;;;;;;25.18;33.75;98311.25;4756491;30;20069;-88
2022/09/18 03:40:12;;;;;;;0.50;0.50;;;;;;;25.10;33.34;98303.91;4718987;30;20033;-88
2022/09/18 03:42:38;;;;;;;0.35;0.35;;;;;;;25.24;33.31;98323.56;4756950;30;20036;-88
2022/09/18 03:45:07;;;;;;;0.35;0.35;;;;;;;25.30;33.41;98344.13;4720066;30;20071;-88
2022/09/18 03:47:32;;;;;;;0.47;0.47;;;;;;;25.24;33.59;98323.56;4756711;30;20039;-88
2022/09/18 03:49:58;;;;;;;0.40;0.40;;;;;;;25.45;33.45;98361.03;4751745;30;20100;-89
2022/09/18 03:52:24;;;;;;;0.50;0.50;;;;;;;25.29;33.63;98330.78;4751804;30;20111;-88
2022/09/18 03:54:49;;;;;;;0.68;0.50;;;;;;;25.38;33.50;98344.38;4752633;30;20039;-88
2022/09/18 03:57:15;;;;;;;0.60;0.43;;;;;;;25.24;33.56;98329.03;4755055;30;20082;-88
2022/09/18 03:59:40;;;;;;;0.45;0.40;;;;;;;25.22;33.32;98331.28;4721302;30;20043;-87
2022/09/18 04:02:06;;;;;;;0.43;0.43;;;;;;;25.18;33.48;98338.59;4747967;30;20196;-88
2022/09/18 04:04:32;;;;;;;0.40;0.40;;;;;;;25.25;33.66;98352.53;4749283;30;20109;-88
2022/09/18 04:06:57;;;;;;;0.52;0.52;;;;;;;25.26;33.53;98350.59;4743252;30;20127;-88
2022/09/18 04:09:23;;;;;;;0.40;0.40;;;;;;;25.13;33.49;98338.78;4753600;30;20119;-88
2022/09/18 04:11:49;;;;;;;0.50;0.50;;;;;;;25.05;33.39;98336.91;4752733;30;20036;-88
2022/09/18 04:14:15;;;;;;;0.30;0.30;;;;;;;25.37;33.45;98390.06;4754817;30;20032;-88
2022/09/18 04:16:40;;;;;;;1.48;0.50;;;;;;;25.09;33.74;98333.19;4750402;30;20039;-88
2022/09/18 04:19:06;;;;;;;0.40;0.40;;;;;;;25.15;33.70;98350.19;4751883;30;20519;-88
2022/09/18 04:21:31;;;;;;;0.35;0.35;;;;;;;25.04;33.63;98344.31;4753412;30;20036;-88
2022/09/18 04:23:58;;;;;;;1.05;0.60;;;;;;;25.19;33.39;98359.28;4758243;30;20063;-88
2022/09/18 04:26:25;;;;;;;1.10;0.43;;;;;;;25.04;33.52;98354.44;4762008;30;20163;-88
2022/09/18 04:28:51;;;;;;;0.40;0.40;;;;;;;25.06;33.44;98360.34;4748969;30;20036;-88
2022/09/18 04:31:16;;;;;;;0.50;0.50;;;;;;;25.13;33.50;98377.03;4748966;30;20470;-88
2022/09/18 04:33:42;;;;;;;0.50;0.50;;;;;;;25.14;33.63;98373.16;4746820;30;20028;-88
2022/09/18 04:36:07;;;;;;;0.50;0.50;;;;;;;25.07;33.65;98367.44;4754372;30;20573;-88
2022/09/18 04:38:33;;;;;;;0.40;0.40;;;;;;;25.16;33.42;98390.03;4763012;30;20040;-88
2022/09/18 04:40:59;;;;;;;0.40;0.40;;;;;;;25.10;33.71;98389.44;4749173;30;20035;-88
2022/09/18 04:43:26;;;;;;;0.65;0.40;;;;;;;24.96;33.67;98368.94;4725371;30;20123;-88
2022/09/18 04:45:52;;;;;;;0.40;0.40;;;;;;;25.01;33.43;98368.75;4747772;30;20040;-88
2022/09/18 04:48:18;;;;;;;0.57;0.52;;;;;;;24.94;33.58;98358.38;4753904;30;20044;-88
2022/09/18 04:50:45;;;;;;;0.50;0.50;;;;;;;24.94;33.71;98369.31;4762665;30;20172;-88
2022/09/18 04:53:10;;;;;;;0.40;0.40;;;;;;;25.11;33.77;98385.56;4730924;30;20062;-88
2022/09/18 04:55:36;;;;;;;0.50;0.50;;;;;;;24.99;33.49;98371.84;4752439;30;20506;-88
2022/09/18 04:58:02;;;;;;;0.70;0.40;;;;;;;24.97;33.56;98362.38;4731131;30;20470;-88
2022/09/18 05:00:27;;;;;;;0.40;0.40;;;;;;;25.16;33.34;98391.97;4756061;30;20454;-88
2022/09/18 05:02:53;;;;;;;1.08;0.50;;;;;;;25.05;33.63;98381.44;4748621;30;20052;-88
2022/09/18 05:05:19;;;;;;;0.43;0.43;;;;;;;25.11;33.65;98395.69;4763719;30;20162;-88
2022/09/18 05:07:44;;;;;;;0.60;0.40;;;;;;;25.08;33.50;98396.38;4741202;30;20119;-88
2022/09/18 05:10:10;;;;;;;0.60;0.60;;;;;;;25.19;33.56;98413.16;4757334;30;20110;-88
2022/09/18 05:12:39;;;;;;;0.20;0.20;;;;;;;25.16;33.71;98414.63;4745691;30;20039;-88
2022/09/18 05:15:05;;;;;;;1.45;0.40;;;;;;;25.14;33.51;98424.31;4742550;30;20035;-88
2022/09/18 05:17:31;;;;;;;0.47;0.40;;;;;;;25.15;33.64;98418.50;4732353;30;20029;-88
2022/09/18 05:19:57;;;;;;;0.38;0.38;;;;;;;25.12;33.58;98419.94;4760934;30;20032;-88
2022/09/18 05:22:23;;;;;;;0.40;0.40;;;;;;;25.14;33.83;98422.34;4727661;30;20039;-88
2022/09/18 05:24:49;;;;;;;0.45;0.40;;;;;;;25.06;33.79;98417.75;4745957;30;20486;-88
2022/09/18 05:27:14;;;;;;;0.68;0.30;;;;;;;25.14;33.72;98430.56;4749979;30;21748;-88
2022/09/18 05:29:40;;;;;;;0.40;0.40;;;;;;;25.16;33.48;98436.47;4762839;30;20110;-88
2022/09/18 05:32:06;;;;;;;1.00;0.30;;;;;;;25.15;33.67;98439.56;4736694;30;20115;-88
2022/09/18 05:34:32;;;;;;;0.40;0.40;;;;;;;25.04;33.39;98417.28;4740377;30;20032;-88
2022/09/18 05:36:57;;;;;;;0.30;0.30;;;;;;;25.11;33.75;98440.22;4741126;30;20042;-88
2022/09/18 05:39:23;;;;;;;0.80;0.30;;;;;;;25.01;33.73;98423.41;4735566;30;20052;-87
2022/09/18 05:41:50;;;;;;;0.30;0.30;;;;;;;25.09;33.80;98437.03;4737632;30;20397;-88
2022/09/18 05:44:16;;;;;;;0.40;0.40;;;;;;;25.01;33.58;98428.88;4738364;30;20151;-88
2022/09/18 05:46:41;;;;;;;0.40;0.40;;;;;;;25.09;33.77;98438.94;4721275;30;20465;-88
2022/09/18 05:49:07;;;;;;;0.80;0.60;;;;;;;24.99;33.77;98433.88;4722079;30;20024;-87
2022/09/18 05:51:33;;;;;;;0.30;0.30;;;;;;;25.13;33.76;98453.56;4721600;30;20031;-88
2022/09/18 05:53:58;;;;;;;0.45;0.45;;;;;;;25.05;33.63;98447.00;4736648;30;20035;-87
2022/09/18 05:56:26;;;;;;;0.22;0.20;;;;;;;25.09;33.44;98460.81;4722299;30;20115;-88
2022/09/18 05:58:51;;;;;;;0.30;0.30;;;;;;;25.07;33.80;98460.34;4765025;30;20031;-87
2022/09/18 06:01:17;;;;;;;0.75;0.50;;;;;;;25.08;33.42;98470.16;4751017;30;20052;-87
2022/09/18 06:03:42;;;;;;;0.65;0.40;;;;;;;25.07;33.72;98468.53;4750967;30;20508;-87
2022/09/18 06:06:08;;;;;;;0.30;0.30;;;;;;;25.06;33.72;98475.13;4750462;30;20038;-87
2022/09/18 06:08:35;;;;;;;0.30;0.30;;;;;;;25.06;33.49;98475.13;4736750;30;20039;-87
2022/09/18 06:11:00;;;;;;;0.40;0.40;;;;;;;25.01;33.73;98467.94;4735841;30;20462;-87
2022/09/18 06:13:26;;;;;;;0.40;0.40;;;;;;;25.11;33.60;98483.97;4718457;30;20324;-87
2022/09/18 06:15:52;;;;;;;0.30;0.30;;;;;;;25.11;33.48;98489.44;4720987;30;20485;-87
2022/09/18 06:18:17;;;;;;;0.45;0.40;;;;;;;25.05;33.60;98481.75;4736215;30;20107;-87
2022/09/18 06:20:43;;;;;;;0.98;0.40;;;;;;;25.02;33.64;98494.13;4732983;30;20093;-87
2022/09/18 06:23:09;;;;;;;0.30;0.30;;;;;;;24.86;33.67;98472.03;4719954;30;20043;-86
2022/09/18 06:25:35;;;;;;;0.30;0.30;;;;;;;25.08;33.64;98501.00;4740688;30;20032;-87
2022/09/18 06:28:01;;;;;;;0.30;0.30;;;;;;;25.00;33.61;98492.88;4736116;30;20035;-86
2022/09/18 06:30:28;;;;;;;1.42;0.20;;;;;;;25.00;33.44;98492.88;4722828;30;20031;-86
2022/09/18 06:32:55;;;;;;;0.30;0.30;;;;;;;24.99;33.65;98494.81;4733321;30;20504;-86
2022/09/18 06:35:22;;;;;;;0.32;0.30;;;;;;;24.97;33.77;98493.53;4725115;30;20036;-86
2022/09/18 06:37:47;;;;;;;0.40;0.40;;;;;;;25.04;33.53;98504.72;4754165;30;20044;-86
2022/09/18 06:40:13;;;;;;;0.20;0.20;;;;;;;24.99;33.48;98491.25;4726158;30;20497;-85
2022/09/18 06:42:39;;;;;;;0.30;0.30;;;;;;;25.03;33.54;98500.41;4757153;30;20031;-85
2022/09/18 06:45:05;;;;;;;0.30;0.30;;;;;;;25.07;33.54;98515.00;4722822;30;20118;-85
2022/09/18 06:47:30;;;;;;;0.88;0.35;;;;;;;25.07;33.61;98515.00;4720574;30;20114;-85
2022/09/18 06:49:56;;;;;;;0.30;0.30;;;;;;;24.99;33.61;98513.13;4727090;30;20099;-85
2022/09/18 06:52:22;;;;;;;0.75;0.20;;;;;;;24.93;33.65;98505.09;4719249;30;20023;-85
2022/09/18 06:54:47;;;;;;;0.85;0.40;;;;;;;25.00;33.78;98518.25;4726035;30;20040;-85
2022/09/18 06:57:13;;;;;;;0.28;0.28;;;;;;;25.02;33.32;98524.19;4716774;30;20127;-86
2022/09/18 06:59:38;;;;;;;0.30;0.30;;;;;;;24.87;33.37;98508.34;4740794;30;20118;-86
2022/09/18 07:02:05;;;;;;;0.30;0.30;;;;;;;24.98;33.56;98519.72;4754974;30;20118;-85
2022/09/18 07:04:30;;;;;;;0.50;0.30;;;;;;;24.74;33.73;98483.66;4738706;30;20035;-85
2022/09/18 07:06:56;;;;;;;0.30;0.30;;;;;;;25.04;33.62;98532.06;4740758;30;20036;-85
2022/09/18 07:09:22;;;;;;;0.30;0.30;;;;;;;24.99;33.54;98519.41;4726851;30;20453;-85
2022/09/18 07:11:47;;;;;;;0.28;0.28;;;;;;;24.98;33.72;98515.06;4733826;30;20506;-85
2022/09/18 07:14:13;;;;;;;0.20;0.20;;;;;;;24.89;33.49;98501.44;4741020;30;20036;-85
2022/09/18 07:16:39;;;;;;;0.32;0.32;;;;;;;24.84;33.76;98490.69;4736646;30;20040;-85
2022/09/18 07:19:05;;;;;;;0.22;0.20;;;;;;;24.84;33.61;98490.69;4756166;30;20063;-86
2022/09/18 07:21:31;;;;;;;0.30;0.30;;;;;;;24.85;33.37;98496.94;4740496;30;20446;-85
2022/09/18 07:23:56;;;;;;;0.52;0.30;;;;;;;25.01;33.67;98528.06;4755327;30;20118;-85
2022/09/18 07:26:22;;;;;;;0.35;0.30;;;;;;;25.02;33.75;98534.31;4733231;30;20067;-85
2022/09/18 07:28:48;;;;;;;0.20;0.20;;;;;;;25.05;33.47;98528.22;4739520;30;20035;-86
2022/09/18 07:31:13;;;;;;;0.28;0.28;;;;;;;25.01;33.43;98528.06;4757587;30;20405;-86
2022/09/18 07:33:39;;;;;;;0.30;0.20;;;;;;;25.04;33.45;98552.00;4731943;30;20491;-86
2022/09/18 07:36:05;;;;;;;1.90;0.30;;;;;;;25.03;33.61;98541.41;4741375;30;20036;-86
2022/09/18 07:38:31;;;;;;;0.20;0.20;;;;;;;25.02;33.61;98546.03;4719461;30;20398;-86
2022/09/18 07:40:56;;;;;;;0.35;0.30;;;;;;;25.04;33.39;98553.91;4740582;30;20028;-86
2022/09/18 07:43:22;;;;;;;0.20;0.20;;;;;;;25.04;33.68;98549.28;4739852;30;20069;-85
2022/09/18 07:45:47;;;;;;;0.30;0.30;;;;;;;25.04;33.67;98549.28;4733669;30;20040;-85
2022/09/18 07:48:14;;;;;;;0.20;0.20;;;;;;;25.07;33.55;98558.72;4750886;30;20059;-85
2022/09/18 07:50:40;;;;;;;0.20;0.20;;;;;;;25.06;33.66;98560.69;4726384;30;20390;-85
2022/09/18 07:53:07;;;;;;;0.38;0.30;;;;;;;25.06;33.40;98563.41;4753715;30;20063;-86
2022/09/18 07:55:34;;;;;;;0.25;0.25;;;;;;;25.05;33.34;98558.28;4754889;30;20042;-86
2022/09/18 07:58:01;;;;;;;0.30;0.28;;;;;;;25.03;33.64;98557.81;4733085;30;20043;-86
2022/09/18 08:00:28;;;;;;;0.30;0.30;;;;;;;25.01;33.37;98565.50;4738755;30;20406;-86
2022/09/18 08:03:24;;;;;;;0.20;0.20;;;;;;;25.06;33.42;98563.41;4737474;30;20063;-86
2022/09/18 08:05:50;;;;;;;0.30;0.30;;;;;;;25.09;33.54;98570.13;4756665;30;20044;-86
2022/09/18 08:08:16;;;;;;;0.30;0.30;;;;;;;25.07;33.60;98581.38;4739950;30;20062;-86
2022/09/18 08:10:42;;;;;;;1.25;0.20;;;;;;;25.06;33.51;98578.97;4724033;30;20494;-86
2022/09/18 08:13:08;;;;;;;0.20;0.20;;;;;;;25.00;33.53;98569.38;4756891;30;20038;-86
2022/09/18 08:15:35;;;;;;;0.20;0.20;;;;;;;25.10;33.54;98585.41;4738328;30;20035;-86
2022/09/18 08:18:01;;;;;;;0.30;0.30;;;;;;;25.09;33.66;98584.63;4735929;30;20462;-85
2022/09/18 08:20:26;;;;;;;0.25;0.25;;;;;;;25.04;33.34;98575.78;4739997;30;20110;-85
2022/09/18 08:22:52;;;;;;;0.30;0.30;;;;;;;25.11;33.45;98597.94;4732416;30;20119;-85
2022/09/18 08:25:19;;;;;;;0.40;0.40;;;;;;;25.09;33.33;98589.25;4744635;30;20771;-85
2022/09/18 08:27:45;;;;;;;0.50;0.28;;;;;;;25.05;33.36;98586.38;4750257;30;20042;-85
2022/09/18 08:30:12;;;;;;;0.30;0.30;;;;;;;25.11;33.52;98603.41;4753145;30;20118;-85
2022/09/18 08:32:38;;;;;;;0.30;0.30;;;;;;;25.11;33.35;98595.19;4736228;30;20036;-86
2022/09/18 08:35:04;;;;;;;0.20;0.20;;;;;;;25.09;33.56;98600.19;4755012;30;20512;-86
2022/09/18 08:37:30;;;;;;;0.20;0.20;;;;;;;25.09;33.54;98602.94;4759719;30;20028;-86
2022/09/18 08:39:55;;;;;;;0.22;0.22;;;;;;;25.09;33.29;98609.22;4736380;30;20031;-86
2022/09/18 08:42:45;;;;;;;0.20;0.20;;;;;;;25.12;33.51;98610.47;4735021;30;20046;-86
2022/09/18 08:45:16;;;;;;;0.50;0.30;;;;;;;25.14;33.67;98613.69;4742724;30;20048;-86
2022/09/18 08:47:48;;;;;;;0.20;0.20;;;;;;;25.08;33.50;98615.00;4763811;30;20031;-86
2022/09/18 08:50:44;;;;;;;0.30;0.30;;;;;;;24.91;33.71;98600.25;4734113;30;20035;-85
2022/09/18 08:53:19;;;;;;;0.30;0.30;;;;;;;25.24;33.57;98618.78;4744606;30;20048;-85
2022/09/18 08:55:46;;;;;;;3.72;0.50;;;;;;;25.40;33.38;98610.06;4725987;30;20521;-86
2022/09/18 08:58:11;;;;;;;0.20;0.20;;;;;;;25.59;33.22;98623.31;4739948;30;20040;-87
2022/09/18 09:00:42;;;;;;;2.60;0.45;;;;;;;25.60;33.11;98608.50;4767640;30;20506;-87
2022/09/18 09:03:15;;;;;;;1.20;0.30;;;;;;;25.77;32.95;98622.09;4767174;30;20039;-87
2022/09/18 09:06:20;;;;;;;0.30;0.28;;;;;;;25.59;33.33;98606.91;4767922;30;20459;-86
2022/09/18 09:08:48;;;;;;;3.05;0.30;;;;;;;25.71;33.64;98634.34;4727001;30;20094;-85
2022/09/18 09:11:27;;;;;;;1.83;0.30;;;;;;;25.56;33.58;98634.91;4758730;30;20031;-85
2022/09/18 09:14:01;;;;;;;1.05;0.30;;;;;;;25.58;33.94;98638.13;4733377;30;20478;-85
2022/09/18 09:16:51;;;;;;;1.10;0.40;;;;;;;25.54;33.91;98627.03;4752352;30;20042;-85
2022/09/18 09:19:25;;;;;;;2.30;0.50;;;;;;;25.44;34.21;98611.81;4744444;30;20520;-85
2022/09/18 09:22:16;;;;;;;0.68;0.30;;;;;;;25.58;33.83;98641.66;4752043;30;20040;-85
2022/09/18 09:24:50;;;;;;;0.75;0.30;;;;;;;25.63;34.00;98644.22;4742534;30;20032;-85
2022/09/18 09:27:34;;;;;;;0.65;0.20;;;;;;;25.62;34.11;98644.53;4738449;30;20408;-85
2022/09/18 09:30:03;;;;;;;0.45;0.38;;;;;;;25.63;33.98;98651.59;4743325;30;20043;-85
2022/09/18 09:32:32;;;;;;;0.98;0.30;;;;;;;25.59;34.17;98651.47;4731187;30;20039;-85
2022/09/18 09:35:15;;;;;;;2.92;0.30;;;;;;;25.54;34.28;98643.44;4735043;30;20038;-85
2022/09/18 09:37:42;;;;;;;2.45;0.30;;;;;;;25.60;34.09;98660.47;4755974;30;20046;-85
2022/09/18 09:40:34;;;;;;;1.17;0.35;;;;;;;25.55;34.13;98647.78;4725046;30;20489;-85
2022/09/18 09:43:03;;;;;;;0.30;0.30;;;;;;;25.65;34.30;98671.25;4759518;30;20531;-85
2022/09/18 09:45:49;;;;;;;0.30;0.28;;;;;;;25.58;34.13;98663.53;4756107;30;20451;-86
2022/09/18 09:48:20;;;;;;;0.45;0.20;;;;;;;25.48;34.17;98647.50;4746941;30;20055;-86
2022/09/18 09:51:07;;;;;;;0.20;0.20;;;;;;;25.66;34.06;98679.13;4723906;30;20039;-85
2022/09/18 09:53:33;;;;;;;0.13;0.13;;;;;;;25.61;34.15;98660.16;4742769;30;20042;-85
2022/09/18 09:56:19;;;;;;;0.40;0.30;;;;;;;25.65;33.88;98669.28;4742409;30;20071;-85
2022/09/18 09:59:12;;;;;;;0.60;0.40;;;;;;;25.67;34.05;98669.75;4742073;30;20039;-85
2022/09/18 10:01:45;;;;;;;0.63;0.30;;;;;;;25.64;33.95;98675.09;4759366;30;20051;-85
2022/09/18 10:04:59;;;;;;;0.35;0.30;;;;;;;25.60;34.13;98685.09;4737967;30;20039;-90
2022/09/18 10:07:36;;;;;;;0.52;0.30;;;;;;;25.48;34.29;98656.50;4742372;30;20047;-91
2022/09/18 10:10:20;;;;;;;1.80;0.43;;;;;;;25.78;34.69;98685.81;4733685;30;20494;-90
2022/09/18 10:12:45;;;;;;;;;;;;;;;25.83;34.92;98691.09;4768727;30;20048;-87
2022/09/18 10:15:19;;;;;;;0.30;0.30;;;;;;;25.55;34.93;98656.00;4753841;30;20458;-89
2022/09/18 10:17:45;;;;;;;0.47;0.30;;;;;;;25.76;35.25;98671.66;4765330;30;20032;-88
2022/09/18 10:20:15;;;;;;;1.60;0.20;;;;;;;25.94;35.31;98689.63;4754161;30;20043;-88
2022/09/18 10:22:41;;;;;;;0.25;0.20;;;;;;;25.81;35.81;98676.94;4736921;30;20451;-83
2022/09/18 10:25:16;;;;;;;1.50;0.40;;;;;;;25.81;35.81;98679.69;4766145;30;20044;-86
2022/09/18 10:27:42;;;;;;;0.50;0.40;;;;;;;25.88;35.87;98685.44;4735803;30;20054;-84
2022/09/18 10:30:12;;;;;;;0.68;0.40;;;;;;;26.01;36.52;98703.56;4752694;30;20059;-89
2022/09/18 10:32:40;;;;;;;0.52;0.43;;;;;;;26.13;36.31;98712.97;4740810;30;20123;-90
2022/09/18 10:35:33;;;;;;;0.30;0.25;;;;;;;26.36;36.43;98711.53;4764222;30;20534;-85
2022/09/18 10:37:59;;;;;;;6.13;0.60;;;;;;;26.29;36.70;98711.28;4740902;30;20054;-86
2022/09/18 10:40:32;;;;;;;0.68;0.40;;;;;;;26.34;36.97;98724.78;4721657;30;20044;-84
2022/09/18 10:42:58;;;;;;;3.33;0.50;;;;;;;26.31;37.12;98719.16;4739015;30;20074;-84
2022/09/18 10:45:26;;;;;;;3.40;0.70;;;;;;;26.38;37.51;98705.72;4720735;30;20040;-85
2022/09/18 10:48:12;;;;;;;2.55;0.45;;;;;;;26.64;38.45;98721.19;4741154;30;20053;-86
2022/09/18 10:50:38;;;;;;;4.65;0.57;;;;;;;26.87;37.34;98729.84;4728031;30;20492;-86
2022/09/18 10:53:19;;;;;;;2.25;0.70;;;;;;;26.87;38.08;98729.84;4739588;30;20035;-84
2022/09/18 10:55:48;;;;;;;4.80;0.82;;;;;;;26.66;37.49;98700.53;4724853;30;20126;-93
2022/09/18 10:58:14;;;;;;;3.08;0.57;;;;;;;26.75;38.39;98728.66;4724153;30;20039;-83
2022/09/18 11:01:15;;;;;;;9.52;0.77;;;;;;;26.76;37.59;98735.72;4752797;30;20044;-88
2022/09/18 11:03:42;;;;;;;1.73;0.75;;;;;;;26.90;37.04;98740.13;4700586;30;20045;-88
2022/09/18 11:06:16;;;;;;;5.75;0.60;;;;;;;26.97;36.70;98729.41;4746062;30;20058;-88
2022/09/18 11:08:45;;;;;;;3.15;0.47;;;;;;;27.12;36.07;98742.50;4756840;30;20036;-88
2022/09/18 11:11:28;;;;;;;3.25;0.50;;;;;;;27.02;35.91;98720.19;4733131;30;20057;-88
2022/09/18 11:14:00;;;;;;;2.83;0.50;;;;;;;27.17;35.82;98738.75;4737493;30;20221;-88
2022/09/18 11:16:27;;;;;;;1.15;0.60;;;;;;;27.11;35.64;98731.88;4737638;30;20036;-87
2022/09/18 11:19:06;;;;;;;2.90;0.55;;;;;;;26.98;35.87;98698.16;4720721;30;20028;-88
2022/09/18 11:21:31;;;;;;;1.45;0.50;;;;;;;27.26;35.51;98742.19;4756695;30;20475;-88
2022/09/18 11:24:04;;;;;;;3.28;0.55;;;;;;;27.20;35.42;98737.25;4734683;30;20027;-87
2022/09/18 11:26:29;;;;;;;0.40;0.30;;;;;;;27.28;35.26;98744.63;4726259;30;20032;-87
2022/09/18 11:29:03;;;;;;;0.68;0.50;;;;;;;27.35;35.26;98748.44;4739998;30;20054;-88
2022/09/18 11:32:04;;;;;;;1.48;0.50;;;;;;;27.40;35.05;98747.41;4759752;30;20032;-88
2022/09/18 11:34:38;;;;;;;1.08;0.47;;;;;;;27.43;34.96;98740.44;4735959;30;20048;-88
2022/09/18 11:37:11;;;;;;;1.20;0.50;;;;;;;27.43;34.78;98741.22;4732489;30;20039;-87
2022/09/18 11:39:48;;;;;;;2.33;0.40;;;;;;;27.49;34.76;98745.38;4747024;30;20036;-87
2022/09/18 11:42:15;;;;;;;1.48;0.43;;;;;;;27.51;34.91;98745.00;4733206;30;20073;-87
2022/09/18 11:44:40;;;;;;;0.75;0.40;;;;;;;27.52;34.61;98743.88;4733088;30;20069;-88
2022/09/18 11:47:35;;;;;;;0.68;0.30;;;;;;;27.55;34.60;98743.19;4733299;30;20468;-92
2022/09/18 11:50:16;;;;;;;3.55;0.40;;;;;;;27.60;35.04;98755.91;4752784;30;20035;-88